Time;durP1;ratioP1;P1;durP2;ratioP2;P2;SDS_P1;SDS_P2;PMS_P1;PMS_P2;Temp;Humidity;BMP_temperature;BMP_pressure;BME280_temperature;BME280_humidity;BME280_pressure;Samples;Min_cycle;Max_cycle;Signal;HPM_P1;HPM_P2
2023/04/27 00:00:22;;;;;;;11.03;3.30;;;;;;;9.25;59.20;94851.97;5006789;28;20247;-75
2023/04/27 00:02:48;;;;;;;7.97;3.03;;;;;;;9.33;59.75;94850.00;5009133;28;20242;-74
2023/04/27 00:05:13;;;;;;;9.80;3.20;;;;;;;9.46;58.99;94851.84;5022191;28;20239;-74
2023/04/27 00:07:38;;;;;;;8.77;3.10;;;;;;;9.36;59.30;94854.03;5033157;28;20272;-74
2023/04/27 00:10:04;;;;;;;9.50;3.20;;;;;;;9.23;60.07;94856.56;4993132;28;20230;-73
2023/04/27 00:12:30;;;;;;;6.87;2.93;;;;;;;9.11;59.96;94853.69;5012807;28;20779;-74
2023/04/27 00:14:55;;;;;;;8.33;3.00;;;;;;;9.12;59.15;94860.50;5030979;28;20235;-74
2023/04/27 00:17:21;;;;;;;12.50;3.20;;;;;;;9.12;60.38;94865.72;5011227;28;20222;-74
2023/04/27 00:19:47;;;;;;;8.07;3.13;;;;;;;9.12;60.06;94863.13;4997149;28;20234;-74
2023/04/27 00:22:12;;;;;;;10.73;3.43;;;;;;;9.06;60.29;94863.09;4989278;28;20637;-75
2023/04/27 00:24:38;;;;;;;9.30;3.27;;;;;;;9.12;60.29;94870.94;5012778;28;20238;-74
2023/04/27 00:27:04;;;;;;;11.23;3.30;;;;;;;9.31;60.16;94872.09;5030949;28;20234;-73
2023/04/27 00:29:30;;;;;;;6.50;2.97;;;;;;;8.98;59.79;94869.25;5029162;28;20245;-74
2023/04/27 00:31:55;;;;;;;7.23;3.10;;;;;;;8.98;60.77;94871.09;5007675;28;20256;-74
2023/04/27 00:34:21;;;;;;;9.10;3.27;;;;;;;8.98;59.87;94861.44;5006515;28;20238;-74
2023/04/27 00:36:46;;;;;;;13.30;3.27;;;;;;;8.99;60.34;94870.06;5013714;28;20231;-75
2023/04/27 00:39:12;;;;;;;8.43;2.97;;;;;;;8.88;60.44;94871.41;5019406;28;20401;-75
2023/04/27 00:41:40;;;;;;;10.53;3.07;;;;;;;8.85;60.95;94866.56;5007439;28;21036;-75
2023/04/27 00:44:06;;;;;;;7.10;2.70;;;;;;;9.02;60.72;94867.91;5009242;28;20285;-75
2023/04/27 00:46:35;;;;;;;10.13;3.00;;;;;;;8.94;59.98;94865.44;5012369;28;20262;-74
2023/04/27 00:49:03;;;;;;;8.70;2.80;;;;;;;8.86;60.38;94870.78;5004267;28;20257;-74
2023/04/27 00:51:31;;;;;;;11.03;2.90;;;;;;;8.78;60.84;94871.75;5005290;28;20234;-74
2023/04/27 00:53:57;;;;;;;9.23;2.90;;;;;;;8.87;61.26;94875.00;5013587;28;20265;-74
2023/04/27 00:56:22;;;;;;;7.23;2.80;;;;;;;8.90;61.08;94877.25;4992394;28;20222;-75
2023/04/27 00:58:48;;;;;;;10.47;3.03;;;;;;;8.89;60.79;94880.84;5007238;28;20238;-73
2023/04/27 01:01:13;;;;;;;7.67;3.10;;;;;;;8.74;60.48;94873.09;5030028;28;20233;-75
2023/04/27 01:03:39;;;;;;;9.73;2.90;;;;;;;8.71;60.83;94880.53;4995197;28;20230;-74
2023/04/27 01:06:05;;;;;;;7.47;2.90;;;;;;;8.67;61.78;94881.88;4991151;28;20226;-74
2023/04/27 01:08:30;;;;;;;7.97;2.97;;;;;;;8.57;61.04;94882.19;5019666;28;20239;-74
2023/04/27 01:10:56;;;;;;;7.90;2.87;;;;;;;8.66;61.38;94888.91;5004822;28;20789;-75
2023/04/27 01:13:21;;;;;;;14.03;3.83;;;;;;;8.64;61.29;94892.69;5031155;28;20627;-74
2023/04/27 01:15:47;;;;;;;7.83;2.87;;;;;;;8.61;62.04;94886.06;4983850;28;20245;-74
2023/04/27 01:18:12;;;;;;;9.03;2.97;;;;;;;8.68;61.64;94891.31;5001337;28;20230;-75
2023/04/27 01:20:38;;;;;;;9.83;3.27;;;;;;;8.59;61.56;94884.63;4995846;28;20231;-74
2023/04/27 01:23:03;;;;;;;8.30;2.80;;;;;;;8.59;62.11;94888.06;4988712;28;20715;-74
2023/04/27 01:25:29;;;;;;;8.53;3.10;;;;;;;8.71;61.56;94893.56;5018590;28;20240;-74
2023/04/27 01:27:55;;;;;;;8.53;2.80;;;;;;;8.62;61.35;94892.09;5037226;28;20226;-74
2023/04/27 01:30:21;;;;;;;7.10;3.00;;;;;;;8.55;61.28;94902.44;5009881;28;20234;-75
2023/04/27 01:32:48;;;;;;;12.73;3.03;;;;;;;8.59;62.37;94898.50;5022120;28;20247;-74
2023/04/27 01:35:13;;;;;;;8.80;3.37;;;;;;;8.54;62.26;94905.25;4992894;28;20245;-74
2023/04/27 01:37:39;;;;;;;12.43;3.13;;;;;;;8.51;61.69;94900.41;5030501;28;20233;-74
2023/04/27 01:40:05;;;;;;;11.43;3.07;;;;;;;8.49;61.63;94905.00;4995148;28;20744;-74
2023/04/27 01:42:30;;;;;;;9.03;2.90;;;;;;;8.48;62.46;94909.41;5002650;28;20230;-74
2023/04/27 01:44:56;;;;;;;7.40;3.03;;;;;;;8.53;62.30;94908.84;5010318;28;20296;-73
2023/04/27 01:47:21;;;;;;;10.00;3.17;;;;;;;8.51;62.46;94906.44;4987999;28;20242;-75
2023/04/27 01:49:47;;;;;;;11.53;3.20;;;;;;;8.52;63.10;94913.28;4996346;28;20226;-75
2023/04/27 01:52:12;;;;;;;5.10;2.87;;;;;;;8.41;62.42;94910.34;4988416;28;20230;-74
2023/04/27 01:54:38;;;;;;;11.70;3.30;;;;;;;8.38;61.93;94905.50;5020107;28;20230;-74
2023/04/27 01:57:03;;;;;;;7.30;2.83;;;;;;;8.41;62.80;94910.34;5000403;28;20237;-74
2023/04/27 01:59:28;;;;;;;8.50;3.00;;;;;;;8.34;62.80;94912.06;5004869;28;20254;-74
2023/04/27 02:01:55;;;;;;;8.40;3.10;;;;;;;8.37;63.00;94911.72;4999210;28;20252;-74
2023/04/27 02:04:20;;;;;;;7.40;3.30;;;;;;;8.34;62.14;94912.06;4996157;28;20244;-73
2023/04/27 02:06:46;;;;;;;8.50;3.10;;;;;;;8.27;62.11;94909.41;5007780;28;20221;-75
2023/04/27 02:09:12;;;;;;;13.60;3.50;;;;;;;8.33;62.02;94910.47;5003561;28;20226;-74
2023/04/27 02:11:37;;;;;;;9.33;3.30;;;;;;;8.21;62.41;94909.31;5011271;28;20230;-74
2023/04/27 02:14:03;;;;;;;9.77;3.23;;;;;;;8.25;61.85;94913.16;4992332;28;20231;-74
2023/04/27 02:16:28;;;;;;;9.47;3.10;;;;;;;8.31;62.57;94908.03;5000569;28;20365;-74
2023/04/27 02:18:54;;;;;;;7.43;3.07;;;;;;;8.22;62.41;94913.53;5001433;28;20616;-75
2023/04/27 02:21:19;;;;;;;8.73;3.13;;;;;;;8.04;63.17;94917.38;5003903;28;20222;-75
2023/04/27 02:23:45;;;;;;;9.53;3.40;;;;;;;8.18;62.70;94920.09;5020373;28;20226;-74
2023/04/27 02:26:18;;;;;;;10.00;3.37;;;;;;;8.19;62.44;94917.34;4989394;28;20241;-75
2023/04/27 02:28:44;;;;;;;12.27;3.40;;;;;;;8.18;62.26;94907.88;4995570;28;20288;-74
2023/04/27 02:31:10;;;;;;;10.00;3.10;;;;;;;8.12;62.63;94917.25;5028711;28;20635;-75
2023/04/27 02:33:35;;;;;;;9.90;3.13;;;;;;;8.08;62.34;94916.00;5009419;28;20257;-74
2023/04/27 02:36:01;;;;;;;13.10;3.30;;;;;;;8.04;62.18;94913.94;4984527;28;20242;-75
2023/04/27 02:38:28;;;;;;;10.43;3.10;;;;;;;8.08;62.70;94916.00;4987299;28;20233;-74
2023/04/27 02:40:54;;;;;;;7.80;2.80;;;;;;;7.95;62.60;94926.25;4988736;28;20223;-75
2023/04/27 02:43:20;;;;;;;9.30;3.20;;;;;;;8.05;62.06;94918.16;4985196;28;20227;-74
2023/04/27 02:45:45;;;;;;;9.60;2.90;;;;;;;7.98;62.02;94922.47;5015598;28;20234;-74
2023/04/27 02:48:11;;;;;;;8.30;3.00;;;;;;;7.95;62.55;94918.44;4995309;28;20231;-74
2023/04/27 02:50:41;;;;;;;8.17;2.93;;;;;;;7.95;62.01;94922.88;5017705;28;20227;-74
2023/04/27 02:53:06;;;;;;;5.40;2.97;;;;;;;7.93;61.95;94919.63;4987677;28;20241;-74
2023/04/27 02:55:31;;;;;;;9.37;2.97;;;;;;;7.84;62.42;94918.94;4990065;28;20230;-74
2023/04/27 02:57:57;;;;;;;6.57;2.80;;;;;;;7.91;61.86;94922.41;5000529;28;20256;-75
2023/04/27 03:00:23;;;;;;;8.43;3.20;;;;;;;7.95;61.60;94930.69;5005188;28;20905;-74
2023/04/27 03:02:48;;;;;;;7.27;3.30;;;;;;;7.82;62.42;94920.91;4986199;28;20233;-74
2023/04/27 03:05:13;;;;;;;13.30;3.17;;;;;;;7.87;61.77;94926.41;5020586;28;20997;-74
2023/04/27 03:07:39;;;;;;;7.77;3.17;;;;;;;7.74;62.27;94928.81;5018862;28;20231;-74
2023/04/27 03:10:05;;;;;;;7.40;2.90;;;;;;;7.91;61.44;94932.03;5009642;28;20234;-75
2023/04/27 03:12:31;;;;;;;7.97;3.13;;;;;;;7.82;61.78;94931.34;5012766;28;20318;-74
2023/04/27 03:14:58;;;;;;;7.73;3.00;;;;;;;7.81;62.06;94934.91;5004956;28;20352;-74
2023/04/27 03:17:24;;;;;;;10.67;3.13;;;;;;;7.97;62.21;94946.94;5020943;28;20223;-74
2023/04/27 03:19:49;;;;;;;6.60;3.00;;;;;;;7.91;61.79;94948.47;5007039;28;20296;-75
2023/04/27 03:22:14;;;;;;;7.73;2.93;;;;;;;7.87;61.96;94942.03;4998857;28;20234;-75
2023/04/27 03:24:40;;;;;;;10.13;3.37;;;;;;;7.82;62.36;94946.16;4979402;28;20306;-74
2023/04/27 03:27:05;;;;;;;12.40;3.00;;;;;;;7.73;61.72;94948.06;5005424;28;20258;-75
2023/04/27 03:29:31;;;;;;;7.20;3.00;;;;;;;7.70;62.18;94950.22;5023109;28;20234;-74
2023/04/27 03:31:56;;;;;;;9.87;3.10;;;;;;;7.75;62.67;94945.25;5025757;28;20239;-75
2023/04/27 03:34:22;;;;;;;11.40;3.30;;;;;;;7.61;62.43;94946.91;5009228;28;20238;-75
2023/04/27 03:36:48;;;;;;;7.27;3.00;;;;;;;7.49;62.62;94958.75;5005982;28;20288;-74
2023/04/27 03:39:13;;;;;;;7.40;3.03;;;;;;;7.60;62.97;94962.69;4992956;28;20234;-73
2023/04/27 03:41:39;;;;;;;10.47;3.20;;;;;;;7.58;62.51;94969.88;5013483;28;20266;-74
2023/04/27 03:44:05;;;;;;;8.20;3.10;;;;;;;7.65;62.57;94963.78;5017140;28;20237;-74
2023/04/27 03:46:31;;;;;;;11.40;3.20;;;;;;;7.75;62.35;94960.91;5005853;28;20234;-74
2023/04/27 03:48:57;;;;;;;9.70;3.10;;;;;;;7.81;62.71;94976.59;5016947;28;20230;-75
2023/04/27 03:51:22;;;;;;;10.07;3.40;;;;;;;7.84;62.31;94967.63;5001013;28;20258;-74
2023/04/27 03:53:47;;;;;;;10.87;3.20;;;;;;;7.86;62.47;94971.66;5028197;28;20234;-74
2023/04/27 03:56:13;;;;;;;10.77;2.97;;;;;;;7.81;62.85;94963.56;5017898;28;20285;-75
2023/04/27 03:58:39;;;;;;;8.43;3.00;;;;;;;7.73;62.76;94978.50;5007450;28;20242;-75
2023/04/27 04:01:05;;;;;;;6.87;3.00;;;;;;;7.81;62.44;94986.25;5001253;28;20957;-75
2023/04/27 04:03:30;;;;;;;10.17;3.40;;;;;;;7.79;62.75;94985.59;5011372;28;20310;-75
2023/04/27 04:05:56;;;;;;;8.13;3.50;;;;;;;7.86;62.14;94989.09;5007780;28;20317;-73
2023/04/27 04:08:21;;;;;;;10.23;3.17;;;;;;;7.89;62.47;94991.34;4987441;28;20239;-74
2023/04/27 04:10:47;;;;;;;12.07;3.40;;;;;;;7.92;62.08;94994.41;5006710;28;20227;-75
2023/04/27 04:13:12;;;;;;;10.67;3.37;;;;;;;7.80;62.03;94990.63;5011691;28;20230;-74
2023/04/27 04:15:38;;;;;;;10.63;3.60;;;;;;;7.88;62.00;94994.94;5011312;28;20266;-75
2023/04/27 04:18:03;;;;;;;9.27;3.60;;;;;;;7.73;61.92;95007.97;5028685;28;20277;-75
2023/04/27 04:20:29;;;;;;;11.13;3.60;;;;;;;7.78;62.47;95007.44;5008511;28;20652;-75
2023/04/27 04:22:55;;;;;;;8.30;3.33;;;;;;;7.85;61.98;95009.16;5019886;28;20237;-75
2023/04/27 04:25:21;;;;;;;10.50;3.40;;;;;;;7.86;62.74;95012.53;5006410;28;20273;-76
2023/04/27 04:27:47;;;;;;;11.53;3.43;;;;;;;7.82;61.66;95009.50;5002906;28;20658;-75
2023/04/27 04:30:15;;;;;;;9.30;3.70;;;;;;;7.82;62.26;95014.72;5010683;28;20609;-74
2023/04/27 04:32:40;;;;;;;11.00;3.70;;;;;;;7.95;61.74;95019.28;5007475;28;20757;-74
2023/04/27 04:35:06;;;;;;;9.40;3.37;;;;;;;7.82;61.40;95019.91;5015351;28;20231;-75
2023/04/27 04:37:34;;;;;;;14.10;5.90;;;;;;;7.82;61.53;95022.53;5002566;28;20312;-73
2023/04/27 04:39:59;;;;;;;10.97;4.03;;;;;;;7.91;61.23;95029.25;5018579;28;20238;-75
2023/04/27 04:42:25;;;;;;;12.67;3.80;;;;;;;7.91;61.06;95029.25;5023413;28;20236;-74
2023/04/27 04:44:50;;;;;;;10.20;3.97;;;;;;;8.02;62.21;95028.78;5019695;28;20246;-74
2023/04/27 04:47:16;;;;;;;10.47;3.80;;;;;;;7.98;61.10;95032.75;5022064;28;20257;-73
2023/04/27 04:49:41;;;;;;;11.27;3.80;;;;;;;8.12;60.41;95025.91;5017951;28;20635;-74
2023/04/27 04:52:07;;;;;;;9.20;3.40;;;;;;;8.03;60.56;95040.84;4991889;28;20237;-73
2023/04/27 04:54:33;;;;;;;12.00;4.00;;;;;;;8.13;61.07;95043.16;5007289;28;20241;-75
2023/04/27 04:56:59;;;;;;;9.23;3.80;;;;;;;8.06;60.84;95043.09;4993663;28;20861;-74
2023/04/27 04:59:25;;;;;;;9.60;3.40;;;;;;;8.88;59.19;95043.66;5020838;28;20241;-73
2023/04/27 05:01:54;;;;;;;8.73;3.47;;;;;;;10.74;53.11;95047.13;5027531;28;20688;-74
2023/04/27 05:04:19;;;;;;;7.30;3.33;;;;;;;10.73;52.45;95057.75;5004993;28;20230;-73
2023/04/27 05:06:45;;;;;;;8.83;3.50;;;;;;;10.54;53.28;95046.22;4995241;28;20233;-73
2023/04/27 05:09:11;;;;;;;10.77;3.43;;;;;;;10.93;51.75;95061.25;5005420;28;20256;-73
2023/04/27 05:11:36;;;;;;;9.07;3.80;;;;;;;9.76;54.61;95061.47;5030629;28;20238;-74
2023/04/27 05:14:02;;;;;;;11.47;3.50;;;;;;;9.14;56.41;95064.00;4992078;28;20230;-74
2023/04/27 05:16:27;;;;;;;10.07;4.00;;;;;;;9.10;57.73;95062.75;5017605;28;20738;-74
2023/04/27 05:18:53;;;;;;;10.80;3.90;;;;;;;8.89;57.53;95068.75;5015902;28;20230;-75
2023/04/27 05:21:20;;;;;;;11.77;3.90;;;;;;;8.93;58.23;95064.81;5000115;28;20345;-73
2023/04/27 05:23:46;;;;;;;11.20;4.00;;;;;;;8.95;58.47;95065.41;5015736;28;20230;-72
2023/04/27 05:26:15;;;;;;;13.10;3.70;;;;;;;8.80;58.23;95064.66;5015605;28;20285;-74
2023/04/27 05:28:41;;;;;;;7.67;3.60;;;;;;;9.06;58.21;95057.09;4994337;28;20741;-73
2023/04/27 05:31:07;;;;;;;10.40;4.10;;;;;;;9.23;58.11;95070.69;5020270;28;20325;-75
2023/04/27 05:33:32;;;;;;;10.10;4.10;;;;;;;9.21;57.51;95068.28;4995238;28;20247;-74
2023/04/27 05:35:58;;;;;;;10.83;3.80;;;;;;;9.09;57.37;95069.78;5019449;28;20283;-74
2023/04/27 05:38:25;;;;;;;8.87;3.93;;;;;;;9.13;58.18;95067.59;5014108;28;20627;-74
2023/04/27 05:40:55;;;;;;;9.80;4.00;;;;;;;9.22;57.80;95071.69;5014622;28;20316;-74
2023/04/27 05:43:21;;;;;;;8.93;4.10;;;;;;;9.24;57.69;95075.72;5027048;28;20234;-75
2023/04/27 05:45:46;;;;;;;9.63;3.97;;;;;;;9.20;57.80;95074.50;5014941;28;20265;-75
2023/04/27 05:48:15;;;;;;;10.37;3.90;;;;;;;9.22;58.28;95077.72;4999120;28;20281;-73
2023/04/27 05:50:40;;;;;;;9.20;3.93;;;;;;;9.14;57.50;95077.03;5000053;28;20241;-74
2023/04/27 05:53:06;;;;;;;9.30;4.07;;;;;;;9.26;57.37;95073.75;5018766;28;20831;-75
2023/04/27 05:55:32;;;;;;;8.83;4.47;;;;;;;9.21;57.41;95077.91;5005882;28;20710;-73
2023/04/27 05:57:57;;;;;;;11.10;4.20;;;;;;;9.12;57.99;95073.81;5019149;28;20622;-74
2023/04/27 06:00:23;;;;;;;12.07;4.10;;;;;;;9.40;58.40;95079.88;5005011;28;20233;-73
2023/04/27 06:02:49;;;;;;;11.90;4.40;;;;;;;9.45;57.11;95074.91;5003436;28;20237;-74
2023/04/27 06:05:14;;;;;;;7.97;4.20;;;;;;;9.33;57.90;95074.63;5000604;28;20230;-74
2023/04/27 06:07:42;;;;;;;9.07;3.83;;;;;;;9.21;57.10;95075.31;5008967;28;20223;-74
2023/04/27 06:10:09;;;;;;;9.47;3.87;;;;;;;9.41;57.42;95082.31;5002928;28;20321;-74
2023/04/27 06:12:37;;;;;;;11.40;4.10;;;;;;;9.37;57.14;95081.06;5007254;28;20245;-73
2023/04/27 06:15:07;;;;;;;12.00;4.07;;;;;;;9.57;57.02;95086.47;4984353;28;20239;-75
2023/04/27 06:17:34;;;;;;;9.07;4.07;;;;;;;9.44;56.58;95075.91;4998136;28;20231;-74
2023/04/27 06:20:03;;;;;;;10.87;4.23;;;;;;;9.74;56.54;95077.34;5012002;28;20318;-74
2023/04/27 06:22:31;;;;;;;10.40;4.07;;;;;;;9.94;57.00;95073.06;5006041;28;20241;-74
2023/04/27 06:24:56;;;;;;;11.47;4.00;;;;;;;9.87;55.93;95074.00;5002831;28;20239;-73
2023/04/27 06:27:22;;;;;;;9.57;4.13;;;;;;;9.76;56.71;95075.34;5017493;28;20230;-76
2023/04/27 06:29:49;;;;;;;8.07;3.97;;;;;;;9.94;55.84;95078.28;5016541;28;21020;-74
2023/04/27 06:32:15;;;;;;;10.13;4.00;;;;;;;9.89;55.82;95064.16;5018376;28;20234;-73
2023/04/27 06:34:40;;;;;;;9.47;3.90;;;;;;;10.36;54.95;95069.50;5015354;28;20341;-74
2023/04/27 06:37:06;;;;;;;9.10;3.97;;;;;;;10.46;54.40;95067.31;5015073;28;20249;-74
2023/04/27 06:39:32;;;;;;;11.33;4.40;;;;;;;10.85;54.42;95066.66;5027244;28;20264;-74
2023/04/27 06:41:57;;;;;;;11.07;4.13;;;;;;;11.33;53.31;95068.16;4997030;28;20239;-73
2023/04/27 06:44:23;;;;;;;9.13;3.97;;;;;;;11.71;51.88;95072.84;4999857;28;20229;-73
2023/04/27 06:46:49;;;;;;;8.93;3.97;;;;;;;11.85;51.11;95062.13;4998794;28;20317;-74
2023/04/27 06:49:14;;;;;;;11.43;4.13;;;;;;;11.86;51.01;95066.38;4984012;28;20814;-74
2023/04/27 06:51:40;;;;;;;9.97;4.10;;;;;;;11.90;50.59;95061.53;5002455;28;20238;-75
2023/04/27 06:54:06;;;;;;;11.30;4.10;;;;;;;12.03;50.34;95067.56;5025379;28;20724;-74
2023/04/27 06:56:34;;;;;;;10.63;4.13;;;;;;;12.18;50.13;95066.53;5003035;28;20230;-72
2023/04/27 06:59:00;;;;;;;9.27;3.80;;;;;;;12.03;49.73;95061.50;5023822;28;20671;-73
2023/04/27 07:01:25;;;;;;;6.97;3.80;;;;;;;12.06;48.99;95061.91;5006043;28;20313;-73
2023/04/27 07:03:51;;;;;;;10.27;3.70;;;;;;;12.42;48.58;95060.63;5019386;28;20762;-74
2023/04/27 07:06:16;;;;;;;7.70;3.50;;;;;;;12.46;48.22;95062.63;5024384;28;20233;-74
2023/04/27 07:08:42;;;;;;;8.83;3.57;;;;;;;12.03;48.68;95061.50;4998833;28;20234;-73
2023/04/27 07:11:08;;;;;;;8.03;3.63;;;;;;;11.53;49.63;95050.63;4998172;28;20276;-74
2023/04/27 07:13:33;;;;;;;10.37;4.07;;;;;;;11.50;49.80;95065.97;5008147;28;20237;-74
2023/04/27 07:16:00;;;;;;;7.40;3.47;;;;;;;11.87;49.27;95067.97;5004393;28;20226;-72
2023/04/27 07:18:27;;;;;;;10.53;3.57;;;;;;;11.50;49.49;95061.53;4991610;28;20325;-74
2023/04/27 07:20:53;;;;;;;10.47;3.83;;;;;;;11.52;49.91;95059.50;5016285;28;20314;-74
2023/04/27 07:23:18;;;;;;;10.20;3.80;;;;;;;11.93;48.90;95066.38;5014110;28;20227;-74
2023/04/27 07:25:45;;;;;;;11.43;4.17;;;;;;;12.04;47.99;95056.06;4985217;28;20298;-75
2023/04/27 07:28:13;;;;;;;7.93;3.50;;;;;;;11.78;48.42;95063.97;5014059;28;20303;-73
2023/04/27 07:30:42;;;;;;;7.87;3.60;;;;;;;11.90;49.58;95062.34;4999117;28;20648;-73
2023/04/27 07:33:08;;;;;;;8.17;3.50;;;;;;;11.78;48.68;95058.72;5014000;28;20244;-73
2023/04/27 07:35:34;;;;;;;12.33;3.77;;;;;;;11.57;49.24;95058.91;5001909;28;20246;-73
2023/04/27 07:38:03;;;;;;;10.37;3.73;;;;;;;11.67;48.99;95050.63;4996381;28;20230;-73
2023/04/27 07:40:29;;;;;;;7.77;3.57;;;;;;;11.77;49.49;95057.13;5002911;28;20290;-75
2023/04/27 07:42:55;;;;;;;6.93;3.63;;;;;;;11.79;49.04;95055.09;5011350;28;20816;-74
2023/04/27 07:45:21;;;;;;;9.47;3.50;;;;;;;11.79;48.91;95059.53;5004322;28;20226;-73
2023/04/27 07:47:46;;;;;;;6.57;3.47;;;;;;;12.25;48.93;95051.56;5012051;28;20235;-73
2023/04/27 07:50:16;;;;;;;7.60;3.80;;;;;;;12.64;47.93;95049.63;5018423;28;20241;-73
2023/04/27 07:52:41;;;;;;;9.17;3.30;;;;;;;12.92;46.80;95051.09;5004745;28;20313;-73
2023/04/27 07:55:07;;;;;;;9.47;3.40;;;;;;;12.71;46.18;95049.56;5005390;28;20235;-73
2023/04/27 07:57:32;;;;;;;8.30;3.50;;;;;;;13.20;46.33;95052.38;4991333;28;20658;-73
2023/04/27 07:59:59;;;;;;;10.10;3.53;;;;;;;13.53;44.83;95054.78;4978415;28;20226;-74
2023/04/27 08:02:33;;;;;;;6.90;3.33;;;;;;;13.52;45.00;95053.16;5010912;28;20298;-72
2023/04/27 08:05:00;;;;;;;9.50;3.60;;;;;;;13.34;44.38;95048.66;5019434;28;20247;-76
2023/04/27 08:07:25;;;;;;;7.90;3.40;;;;;;;13.23;44.69;95048.53;5027899;28;20234;-74
2023/04/27 08:09:53;;;;;;;9.10;3.50;;;;;;;13.13;44.18;95049.00;5006738;28;20250;-72
2023/04/27 08:12:19;;;;;;;16.77;4.70;;;;;;;13.47;46.09;95051.16;5010295;28;20226;-73
2023/04/27 08:14:45;;;;;;;7.33;2.90;;;;;;;13.84;43.39;95054.72;5021841;28;20292;-74
2023/04/27 08:17:11;;;;;;;8.17;3.00;;;;;;;14.12;43.35;95056.88;4988697;28;20231;-74
2023/04/27 08:19:36;;;;;;;5.03;2.90;;;;;;;14.00;42.25;95051.53;5024834;28;20342;-74
2023/04/27 08:22:02;;;;;;;7.87;3.23;;;;;;;13.89;42.77;95048.81;4993095;28;20231;-74
2023/04/27 08:24:27;;;;;;;7.73;3.50;;;;;;;13.89;43.43;95054.88;4986829;28;20275;-72
2023/04/27 08:26:53;;;;;;;6.30;3.00;;;;;;;13.53;44.52;95054.78;5002387;28;20696;-73
2023/04/27 08:29:19;;;;;;;6.77;3.20;;;;;;;13.67;43.54;95064.16;4997100;28;20242;-74
2023/04/27 08:31:44;;;;;;;8.00;3.27;;;;;;;14.34;43.91;95052.03;5028339;28;20258;-73
2023/04/27 08:34:10;;;;;;;6.37;3.10;;;;;;;14.37;42.16;95052.41;5026601;28;20233;-74
2023/04/27 08:36:35;;;;;;;8.73;3.60;;;;;;;14.48;41.87;95050.84;5017273;28;20230;-74
2023/04/27 08:39:01;;;;;;;7.53;3.37;;;;;;;14.27;42.00;95040.72;5001213;28;20317;-74
2023/04/27 08:41:26;;;;;;;8.87;3.40;;;;;;;14.71;42.16;95048.38;5015428;28;20972;-73
2023/04/27 08:43:52;;;;;;;8.80;3.30;;;;;;;14.80;40.89;95045.22;5020506;28;20311;-74
2023/04/27 08:46:21;;;;;;;11.47;3.33;;;;;;;14.90;41.49;95055.22;5021923;28;20234;-72
2023/04/27 08:48:51;;;;;;;10.90;3.30;;;;;;;14.42;41.72;95062.28;5019668;28;20223;-74
2023/04/27 08:51:16;;;;;;;7.57;3.07;;;;;;;13.65;43.54;95058.31;5000237;28;20234;-73
2023/04/27 08:53:52;;;;;;;6.63;3.30;;;;;;;13.04;43.99;95049.41;5001093;28;20246;-75
2023/04/27 08:56:18;;;;;;;8.10;3.10;;;;;;;13.65;44.40;95047.78;4985359;28;20242;-75
2023/04/27 08:58:44;;;;;;;7.30;3.30;;;;;;;13.54;43.92;95048.50;4997241;28;20778;-74
2023/04/27 09:01:10;;;;;;;8.43;3.50;;;;;;;13.69;43.51;95046.34;5007579;28;20328;-73
2023/04/27 09:03:35;;;;;;;10.73;3.47;;;;;;;13.68;43.75;95049.19;5020095;28;20246;-73
2023/04/27 09:06:02;;;;;;;7.97;3.00;;;;;;;13.77;43.39;95055.78;5006474;28;20384;-75
2023/04/27 09:08:28;;;;;;;8.30;2.73;;;;;;;13.64;43.26;95045.38;5002962;28;20234;-74
2023/04/27 09:10:54;;;;;;;10.37;3.23;;;;;;;14.39;44.00;95039.81;4999359;28;20238;-74
2023/04/27 09:13:22;;;;;;;8.80;3.20;;;;;;;14.17;42.47;95041.22;5015966;28;20249;-73
2023/04/27 09:15:49;;;;;;;8.57;3.10;;;;;;;14.00;42.60;95040.19;5011060;28;20238;-75
2023/04/27 09:18:19;;;;;;;8.13;3.23;;;;;;;14.41;43.76;95037.75;5000702;28;20296;-73
2023/04/27 09:20:49;;;;;;;6.77;3.10;;;;;;;14.82;41.34;95043.16;4988352;28;20245;-74
2023/04/27 09:23:27;;;;;;;7.80;3.30;;;;;;;14.62;40.91;95041.75;4993300;28;20298;-73
2023/04/27 09:25:54;;;;;;;7.93;3.27;;;;;;;14.07;43.12;95035.66;5027786;28;20233;-73
2023/04/27 09:28:21;;;;;;;9.33;3.17;;;;;;;13.61;44.50;95040.56;5001052;28;20238;-73
2023/04/27 09:30:53;;;;;;;8.10;3.13;;;;;;;13.55;44.20;95041.41;5018605;28;20276;-74
2023/04/27 09:33:26;;;;;;;8.63;3.20;;;;;;;14.01;42.12;95033.91;5005633;28;20774;-74
2023/04/27 09:35:52;;;;;;;7.33;3.20;;;;;;;13.87;42.73;95029.81;4988390;28;20234;-74
2023/04/27 09:38:19;;;;;;;10.40;4.83;;;;;;;13.81;43.05;95030.66;5002875;28;20687;-73
2023/04/27 09:40:44;;;;;;;9.43;3.50;;;;;;;13.87;42.62;95021.91;5002846;28;20230;-74
2023/04/27 09:43:13;;;;;;;5.93;3.30;;;;;;;14.18;42.11;95013.91;4998628;28;20293;-74
2023/04/27 09:45:38;;;;;;;8.33;3.30;;;;;;;14.09;42.34;95026.53;5013057;28;20235;-74
2023/04/27 09:48:04;;;;;;;6.83;2.87;;;;;;;13.71;42.30;95019.84;5016508;28;20288;-73
2023/04/27 09:50:32;;;;;;;9.60;2.93;;;;;;;13.77;42.52;95013.69;5027638;28;20286;-73
2023/04/27 09:52:58;;;;;;;6.57;2.80;;;;;;;13.73;43.16;95017.78;4985960;28;20242;-73
2023/04/27 09:55:27;;;;;;;6.43;3.03;;;;;;;14.17;41.69;95018.34;5011438;28;20230;-72
2023/04/27 09:57:52;;;;;;;8.10;3.10;;;;;;;13.80;42.61;95013.28;5015661;28;20825;-72
2023/04/27 10:00:20;;;;;;;6.87;3.13;;;;;;;13.60;43.20;95012.63;5022428;28;20226;-73
2023/04/27 10:03:08;;;;;;;10.03;3.50;;;;;;;13.92;44.18;95011.53;5007694;28;20233;-74
2023/04/27 10:05:58;;;;;;;6.30;3.30;;;;;;;13.79;42.26;95001.94;5026199;28;20231;-74
2023/04/27 10:08:24;;;;;;;7.00;3.23;;;;;;;13.84;43.14;95010.00;5020485;28;20302;-74
2023/04/27 10:10:49;;;;;;;6.07;3.00;;;;;;;13.86;43.12;95004.50;5020034;28;20227;-74
2023/04/27 10:13:25;;;;;;;10.83;3.03;;;;;;;13.57;42.48;95007.78;5027601;28;20241;-73
2023/04/27 10:15:51;;;;;;;5.63;3.20;;;;;;;13.67;42.68;95008.13;5010630;28;20231;-74
2023/04/27 10:18:29;;;;;;;8.53;2.83;;;;;;;13.86;41.54;95007.94;4984272;28;20237;-74
2023/04/27 10:20:55;;;;;;;6.27;3.10;;;;;;;14.15;41.66;95001.16;5004898;28;20980;-74
2023/04/27 10:23:26;;;;;;;6.23;2.83;;;;;;;13.99;42.26;95014.91;4999767;28;20309;-72
2023/04/27 10:25:56;;;;;;;7.27;3.20;;;;;;;13.85;42.52;95010.81;4994950;28;20968;-73
2023/04/27 10:28:21;;;;;;;6.60;3.03;;;;;;;14.02;41.96;95006.56;5021128;28;20339;-73
2023/04/27 10:30:47;;;;;;;7.47;3.30;;;;;;;14.38;41.25;95011.88;5007575;28;20234;-74
2023/04/27 10:33:31;;;;;;;5.40;2.70;;;;;;;14.38;40.73;95006.59;5026492;28;21190;-75
2023/04/27 10:35:57;;;;;;;8.83;3.10;;;;;;;14.64;40.23;95005.50;5000571;28;20235;-73
2023/04/27 10:38:29;;;;;;;6.53;2.70;;;;;;;14.94;39.41;95002.84;5018302;28;20230;-74
2023/04/27 10:40:56;;;;;;;6.60;2.60;;;;;;;14.69;39.86;95009.06;5010237;28;20276;-74
2023/04/27 10:43:28;;;;;;;7.37;2.73;;;;;;;14.50;40.73;95004.84;4993334;28;20237;-73
2023/04/27 10:45:54;;;;;;;5.50;2.70;;;;;;;14.26;39.95;95010.19;5004824;28;20322;-73
2023/04/27 10:48:20;;;;;;;6.63;2.73;;;;;;;14.07;40.19;95002.25;5003696;28;20307;-72
2023/04/27 10:50:45;;;;;;;4.80;2.70;;;;;;;14.20;40.57;94998.69;5004268;28;20911;-74
2023/04/27 10:53:13;;;;;;;8.27;2.60;;;;;;;14.68;38.88;95004.00;5026595;28;20711;-73
2023/04/27 10:55:38;;;;;;;4.13;2.33;;;;;;;14.94;37.55;95000.22;5025794;28;20241;-74
2023/04/27 10:58:04;;;;;;;4.43;2.73;;;;;;;15.12;38.19;95000.16;5011969;28;20234;-74
2023/04/27 11:00:35;;;;;;;7.00;2.50;;;;;;;14.80;37.58;94989.88;5008945;28;20289;-74
2023/04/27 11:03:13;;;;;;;6.80;2.80;;;;;;;14.42;39.80;95005.16;4989645;28;20245;-74
2023/04/27 11:05:38;;;;;;;8.83;2.80;;;;;;;14.33;39.48;94995.91;5006918;28;20241;-74
2023/04/27 11:08:07;;;;;;;5.30;2.60;;;;;;;14.15;39.50;95001.16;5019141;28;20338;-74
2023/04/27 11:10:34;;;;;;;6.20;2.50;;;;;;;14.04;38.61;94989.53;5015752;28;20317;-73
2023/04/27 11:13:09;;;;;;;5.60;2.57;;;;;;;14.24;38.40;94989.31;4990999;28;20728;-74
2023/04/27 11:16:00;;;;;;;8.03;2.77;;;;;;;14.13;39.24;94992.69;5005382;28;20263;-73
2023/04/27 11:18:29;;;;;;;7.13;2.70;;;;;;;14.19;39.92;94991.78;5033158;28;20226;-75
2023/04/27 11:21:07;;;;;;;5.30;2.70;;;;;;;14.41;40.16;94997.44;5006202;28;20238;-75
2023/04/27 11:23:36;;;;;;;5.13;2.70;;;;;;;14.38;39.10;94996.06;5022601;28;20716;-74
2023/04/27 11:26:15;;;;;;;6.37;2.87;;;;;;;14.27;39.38;95009.13;5000896;28;20318;-74
2023/04/27 11:28:44;;;;;;;6.57;2.80;;;;;;;14.19;39.27;95011.03;5016555;28;20299;-73
2023/04/27 11:31:10;;;;;;;6.40;2.60;;;;;;;14.06;40.07;95013.00;5017099;28;20257;-73
2023/04/27 11:33:38;;;;;;;4.13;2.50;;;;;;;13.79;39.74;95009.03;5032245;28;20743;-73